Time;durP1;ratioP1;P1;durP2;ratioP2;P2;SDS_P1;SDS_P2;PMS_P1;PMS_P2;Temp;Humidity;BMP_temperature;BMP_pressure;BME280_temperature;BME280_humidity;BME280_pressure;Samples;Min_cycle;Max_cycle;Signal;HPM_P1;HPM_P2
2021/04/27 00:01:42;;;;;;;6.00;2.92;;;8.70;47.40;;;;;;5062561;28;20677;-64
2021/04/27 00:04:10;;;;;;;4.95;2.72;;;8.70;47.40;;;;;;5053328;28;20043;-62
2021/04/27 00:06:38;;;;;;;6.88;3.00;;;8.70;47.30;;;;;;5058095;28;20032;-64
2021/04/27 00:09:09;;;;;;;6.43;2.83;;;8.60;47.10;;;;;;5062505;28;20036;-64
2021/04/27 00:11:35;;;;;;;6.70;2.97;;;8.60;47.10;;;;;;5063685;28;20028;-64
2021/04/27 00:14:06;;;;;;;9.45;2.85;;;8.60;46.90;;;;;;5064897;28;20501;-64
2021/04/27 00:16:32;;;;;;;4.82;2.30;;;8.60;46.90;;;;;;5060120;28;20085;-64
2021/04/27 00:18:58;;;;;;;8.43;2.80;;;8.60;46.90;;;;;;5064039;28;20044;-64
2021/04/27 00:21:24;;;;;;;8.32;2.90;;;8.50;46.80;;;;;;5047465;28;20032;-65
2021/04/27 00:23:52;;;;;;;5.68;2.58;;;8.50;46.80;;;;;;5058474;28;20044;-64
2021/04/27 00:26:22;;;;;;;7.35;2.67;;;8.40;46.70;;;;;;5063125;28;20040;-63
2021/04/27 00:28:50;;;;;;;4.75;2.95;;;8.40;46.60;;;;;;5055363;28;20048;-64
2021/04/27 00:31:16;;;;;;;6.00;2.72;;;8.40;46.80;;;;;;5065382;28;20560;-63
2021/04/27 00:33:41;;;;;;;6.03;2.58;;;8.40;46.70;;;;;;5049734;28;20036;-64
2021/04/27 00:36:10;;;;;;;11.77;2.70;;;8.30;46.60;;;;;;5070066;28;20443;-63
2021/04/27 00:38:36;;;;;;;7.50;2.78;;;8.30;46.60;;;;;;5026785;28;20433;-64
2021/04/27 00:41:04;;;;;;;7.35;2.95;;;8.30;46.70;;;;;;5064043;28;20040;-63
2021/04/27 00:43:30;;;;;;;6.68;2.80;;;8.30;46.70;;;;;;5062815;28;20039;-64
2021/04/27 00:46:00;;;;;;;6.82;2.70;;;8.20;46.60;;;;;;5065571;28;20041;-64
2021/04/27 00:48:26;;;;;;;6.60;2.60;;;8.20;46.50;;;;;;5061190;28;20131;-64
2021/04/27 00:50:53;;;;;;;6.57;2.70;;;8.20;46.50;;;;;;5065044;28;20028;-64
2021/04/27 00:53:20;;;;;;;7.13;2.58;;;8.20;46.50;;;;;;5063547;28;20036;-64
2021/04/27 00:55:48;;;;;;;4.35;2.70;;;8.10;46.40;;;;;;5066163;28;20035;-64
2021/04/27 00:58:16;;;;;;;7.10;2.88;;;8.10;46.50;;;;;;5046454;28;20882;-64
2021/04/27 01:00:43;;;;;;;5.38;2.30;;;8.10;46.80;;;;;;5043361;28;20686;-64
2021/04/27 01:03:14;;;;;;;7.18;2.58;;;8.10;46.40;;;;;;5062694;28;22005;-64
2021/04/27 01:05:44;;;;;;;8.23;3.10;;;8.10;46.40;;;;;;5061684;28;20507;-64
2021/04/27 01:08:21;;;;;;;6.28;2.92;;;8.00;46.40;;;;;;5065682;28;20032;-64
2021/04/27 01:11:11;;;;;;;6.68;2.50;;;8.00;46.40;;;;;;5055519;28;20040;-64
2021/04/27 01:13:51;;;;;;;6.60;3.00;;;8.00;46.40;;;;;;5070480;28;20128;-64
2021/04/27 01:16:18;;;;;;;6.57;2.60;;;8.00;46.40;;;;;;5066342;28;20044;-64
2021/04/27 01:18:52;;;;;;;7.53;2.70;;;7.90;46.30;;;;;;5053985;28;20185;-64
2021/04/27 01:21:23;;;;;;;4.68;2.47;;;7.90;46.40;;;;;;5071325;28;20090;-64
2021/04/27 01:24:13;;;;;;;4.50;2.30;;;7.90;46.40;;;;;;5054901;28;20044;-64
2021/04/27 01:26:49;;;;;;;4.55;2.47;;;7.90;46.40;;;;;;5065969;28;20040;-64
2021/04/27 01:29:21;;;;;;;5.47;2.83;;;7.80;46.40;;;;;;5061686;28;20111;-64
2021/04/27 01:31:52;;;;;;;5.85;2.42;;;7.80;46.40;;;;;;5067492;28;20143;-64
2021/04/27 01:34:23;;;;;;;5.32;2.47;;;7.80;46.40;;;;;;5068089;28;20037;-64
2021/04/27 01:36:53;;;;;;;4.22;2.30;;;7.80;46.40;;;;;;5072498;28;20548;-64
2021/04/27 01:39:25;;;;;;;5.20;2.42;;;7.80;46.40;;;;;;5064321;28;20646;-63
2021/04/27 01:41:52;;;;;;;6.95;2.67;;;7.70;46.40;;;;;;5067327;28;20040;-63
2021/04/27 01:44:18;;;;;;;4.15;2.10;;;7.70;46.40;;;;;;5066080;28;20513;-64
2021/04/27 01:46:45;;;;;;;5.70;2.40;;;7.70;46.40;;;;;;5070817;28;20074;-64
2021/04/27 01:49:14;;;;;;;4.40;2.10;;;7.70;46.40;;;;;;5070194;28;20044;-64
2021/04/27 01:51:39;;;;;;;4.60;2.03;;;7.70;46.40;;;;;;5060867;28;20046;-64
2021/04/27 01:54:05;;;;;;;3.58;1.80;;;7.70;46.50;;;;;;5059549;28;20048;-64
2021/04/27 01:56:31;;;;;;;6.82;2.15;;;7.70;46.40;;;;;;5044696;28;20032;-65
2021/04/27 01:58:56;;;;;;;5.28;1.88;;;7.70;46.40;;;;;;5069753;28;20042;-63
2021/04/27 02:01:22;;;;;;;4.22;2.58;;;7.60;46.40;;;;;;5054794;28;20043;-64
2021/04/27 02:03:49;;;;;;;5.55;2.13;;;7.60;46.40;;;;;;5062811;28;20075;-63
2021/04/27 02:06:17;;;;;;;3.08;2.03;;;7.60;46.40;;;;;;5047635;28;20387;-63
2021/04/27 02:08:48;;;;;;;3.22;2.10;;;7.60;46.50;;;;;;5045988;28;20042;-64
2021/04/27 02:11:13;;;;;;;3.92;2.15;;;7.60;46.50;;;;;;5045637;28;20054;-64
2021/04/27 02:13:42;;;;;;;4.07;2.20;;;7.60;46.50;;;;;;5070919;28;20123;-64
2021/04/27 02:16:08;;;;;;;3.28;1.98;;;7.60;46.60;;;;;;5069895;28;20050;-62
2021/04/27 02:18:50;;;;;;;4.68;2.35;;;7.60;46.50;;;;;;5067355;28;20032;-64
2021/04/27 02:21:19;;;;;;;4.30;2.05;;;7.60;46.60;;;;;;5059483;28;20055;-64
2021/04/27 02:23:48;;;;;;;5.97;1.90;;;7.50;46.50;;;;;;5064853;28;20039;-64
2021/04/27 02:26:14;;;;;;;6.70;2.72;;;7.50;46.50;;;;;;5062447;28;20031;-64
2021/04/27 02:28:45;;;;;;;5.15;2.50;;;7.50;46.50;;;;;;5060663;28;20046;-64
2021/04/27 02:31:11;;;;;;;4.85;1.88;;;7.50;47.20;;;;;;5063463;28;20027;-64
2021/04/27 02:33:40;;;;;;;7.03;2.42;;;7.50;46.60;;;;;;5066680;28;20036;-64
2021/04/27 02:36:07;;;;;;;6.65;2.08;;;7.50;46.60;;;;;;5063342;28;20032;-64
2021/04/27 02:38:35;;;;;;;3.25;2.15;;;7.50;46.60;;;;;;5063885;28;20043;-64
2021/04/27 02:41:01;;;;;;;4.45;2.05;;;7.40;46.60;;;;;;5067086;28;20047;-64
2021/04/27 02:43:31;;;;;;;4.35;2.13;;;7.40;46.60;;;;;;5066826;28;21135;-64
2021/04/27 02:46:01;;;;;;;6.20;1.95;;;7.40;46.70;;;;;;5063795;28;20455;-64
2021/04/27 02:48:28;;;;;;;9.20;2.00;;;7.40;46.70;;;;;;5050353;28;20078;-63
2021/04/27 02:50:56;;;;;;;4.72;2.15;;;7.40;46.70;;;;;;5062060;28;20119;-63
2021/04/27 02:53:22;;;;;;;6.38;2.30;;;7.30;46.70;;;;;;5063442;28;20443;-64
2021/04/27 02:55:49;;;;;;;9.80;2.20;;;7.30;46.70;;;;;;5062576;28;20300;-64
2021/04/27 02:58:17;;;;;;;4.18;2.45;;;7.30;46.80;;;;;;5062591;28;20040;-64
2021/04/27 03:00:44;;;;;;;7.05;2.80;;;7.30;46.80;;;;;;5063795;28;20047;-64
2021/04/27 03:03:10;;;;;;;6.63;2.22;;;7.20;46.80;;;;;;5045284;28;20039;-63
2021/04/27 03:05:36;;;;;;;3.30;2.05;;;7.20;46.80;;;;;;5064006;28;20071;-64
2021/04/27 03:08:05;;;;;;;5.43;1.98;;;7.20;46.80;;;;;;5047897;28;20043;-64
2021/04/27 03:10:34;;;;;;;7.13;2.63;;;7.20;46.90;;;;;;5039737;28;20043;-64
2021/04/27 03:12:59;;;;;;;4.50;2.45;;;7.20;47.00;;;;;;5056806;28;20055;-64
2021/04/27 03:15:25;;;;;;;3.80;2.40;;;7.20;47.00;;;;;;5061221;28;20040;-63
2021/04/27 03:17:51;;;;;;;5.82;2.13;;;7.20;47.00;;;;;;5069622;28;20032;-64
2021/04/27 03:20:17;;;;;;;4.88;2.35;;;7.10;47.00;;;;;;5066797;28;20118;-64
2021/04/27 03:22:43;;;;;;;8.68;2.38;;;7.10;47.10;;;;;;5062210;28;20036;-64
2021/04/27 03:25:12;;;;;;;4.95;2.30;;;7.10;47.10;;;;;;5055466;28;20046;-64
2021/04/27 03:27:41;;;;;;;6.82;2.30;;;7.10;47.10;;;;;;5033960;28;20217;-64
2021/04/27 03:30:10;;;;;;;9.40;2.25;;;7.00;47.20;;;;;;5061782;28;20063;-63
2021/04/27 03:32:39;;;;;;;9.68;2.78;;;7.00;47.20;;;;;;5056145;28;20127;-64
2021/04/27 03:35:09;;;;;;;4.82;2.50;;;7.00;47.30;;;;;;5063128;28;20047;-64
2021/04/27 03:37:39;;;;;;;7.38;2.67;;;7.00;47.30;;;;;;5063492;28;20051;-63
2021/04/27 03:40:08;;;;;;;9.30;2.72;;;7.00;47.40;;;;;;5061167;28;20051;-64
2021/04/27 03:42:39;;;;;;;5.03;2.45;;;7.00;47.40;;;;;;5061519;28;20047;-64
2021/04/27 03:45:11;;;;;;;11.07;2.58;;;6.90;47.40;;;;;;5059618;28;20051;-64
2021/04/27 03:47:36;;;;;;;3.85;2.30;;;6.90;47.50;;;;;;5051422;28;20438;-64
2021/04/27 03:50:06;;;;;;;7.18;2.45;;;6.90;47.50;;;;;;5046245;28;20093;-64
2021/04/27 03:52:34;;;;;;;3.42;2.03;;;6.90;47.60;;;;;;5056583;28;20044;-64
2021/04/27 03:55:02;;;;;;;5.97;2.33;;;6.80;47.70;;;;;;5059947;28;20121;-64
2021/04/27 03:57:32;;;;;;;7.40;2.30;;;6.80;47.70;;;;;;5061196;28;20957;-64
2021/04/27 03:59:58;;;;;;;9.30;2.78;;;6.80;47.80;;;;;;5063666;28;20119;-63
2021/04/27 04:02:26;;;;;;;3.72;2.30;;;6.80;47.90;;;;;;5061079;28;20036;-64
2021/04/27 04:04:51;;;;;;;7.30;2.17;;;6.80;47.90;;;;;;5047219;28;20422;-64
2021/04/27 04:07:19;;;;;;;5.80;2.30;;;6.70;47.90;;;;;;5055649;28;20040;-64
2021/04/27 04:09:47;;;;;;;7.88;2.15;;;6.70;48.00;;;;;;5062722;28;20097;-64
2021/04/27 04:12:20;;;;;;;4.65;2.42;;;6.70;48.70;;;;;;5065144;28;20125;-64
2021/04/27 04:14:48;;;;;;;5.85;2.45;;;6.70;48.10;;;;;;5061937;28;20177;-64
2021/04/27 04:17:13;;;;;;;6.45;2.17;;;6.70;48.20;;;;;;5059518;28;20059;-64
2021/04/27 04:19:39;;;;;;;5.45;2.67;;;6.70;48.20;;;;;;5061122;28;20501;-64
2021/04/27 04:22:07;;;;;;;7.32;2.55;;;6.80;48.30;;;;;;5059217;28;20528;-62
2021/04/27 04:24:38;;;;;;;8.38;2.78;;;6.70;48.30;;;;;;5061088;28;20456;-64
2021/04/27 04:27:05;;;;;;;6.45;2.80;;;6.80;48.40;;;;;;5046560;28;20036;-64
2021/04/27 04:29:33;;;;;;;8.45;2.75;;;6.70;48.40;;;;;;5072825;28;20094;-64
2021/04/27 04:31:59;;;;;;;9.23;2.60;;;6.80;48.40;;;;;;5058619;28;20614;-64
2021/04/27 04:34:26;;;;;;;4.15;2.50;;;6.80;48.50;;;;;;5062726;28;20119;-64
2021/04/27 04:36:52;;;;;;;9.77;2.40;;;6.80;48.60;;;;;;5058438;28;20225;-64
2021/04/27 04:39:18;;;;;;;6.22;2.10;;;6.80;48.70;;;;;;5043799;28;20036;-64
2021/04/27 04:41:44;;;;;;;3.53;2.40;;;6.90;48.70;;;;;;5069466;28;20036;-64
2021/04/27 04:44:10;;;;;;;10.07;2.33;;;6.90;48.70;;;;;;5064662;28;20032;-63
2021/04/27 04:46:37;;;;;;;5.65;2.35;;;7.00;48.70;;;;;;5074137;28;20032;-64
2021/04/27 04:49:04;;;;;;;4.75;2.45;;;7.00;48.70;;;;;;5073536;28;20626;-64
2021/04/27 04:51:29;;;;;;;7.68;2.10;;;7.00;48.60;;;;;;5069460;28;20461;-64
2021/04/27 04:53:59;;;;;;;5.75;2.63;;;7.10;48.60;;;;;;5076955;28;20123;-64
2021/04/27 04:56:25;;;;;;;6.75;2.03;;;7.10;48.60;;;;;;5046123;28;20405;-64
2021/04/27 04:58:51;;;;;;;10.38;3.42;;;7.10;48.40;;;;;;5060688;28;20421;-64
2021/04/27 05:01:22;;;;;;;6.65;2.55;;;7.20;48.40;;;;;;5075159;28;20060;-63
2021/04/27 05:03:47;;;;;;;5.30;2.15;;;7.20;48.40;;;;;;5070837;28;20043;-64
2021/04/27 05:06:16;;;;;;;7.82;2.58;;;7.20;48.30;;;;;;5081749;28;20028;-63
2021/04/27 05:08:45;;;;;;;7.25;2.42;;;7.20;48.30;;;;;;5060767;28;20413;-64
2021/04/27 05:11:13;;;;;;;9.02;2.50;;;7.20;48.30;;;;;;5076395;28;20039;-64
2021/04/27 05:13:41;;;;;;;4.07;2.30;;;7.20;48.30;;;;;;5074674;28;20082;-64
2021/04/27 05:16:09;;;;;;;15.68;2.40;;;7.30;48.30;;;;;;5069418;28;20489;-64
2021/04/27 05:18:39;;;;;;;6.25;2.30;;;7.30;48.20;;;;;;5075986;28;20044;-63
2021/04/27 05:21:06;;;;;;;4.63;2.05;;;7.30;48.20;;;;;;5082140;28;20085;-64
2021/04/27 05:23:32;;;;;;;5.70;2.45;;;7.40;48.20;;;;;;5059275;28;20523;-64
2021/04/27 05:26:00;;;;;;;5.28;2.55;;;7.40;48.20;;;;;;5077404;28;20028;-64
2021/04/27 05:28:28;;;;;;;5.30;2.50;;;7.50;48.20;;;;;;5074538;28;20081;-64
2021/04/27 05:30:56;;;;;;;3.75;2.22;;;7.80;48.30;;;;;;5056815;28;20055;-64
2021/04/27 05:33:21;;;;;;;8.00;2.55;;;8.00;47.80;;;;;;5071703;28;21517;-64
2021/04/27 05:35:47;;;;;;;6.82;2.47;;;8.20;47.60;;;;;;5075123;28;20129;-63
2021/04/27 05:38:15;;;;;;;6.15;2.30;;;8.30;47.20;;;;;;5075901;28;20405;-64
2021/04/27 05:40:40;;;;;;;4.28;2.28;;;8.40;46.90;;;;;;5067602;28;20563;-64
2021/04/27 05:43:06;;;;;;;4.40;2.30;;;8.60;46.80;;;;;;5056468;28;20038;-64
2021/04/27 05:45:37;;;;;;;4.50;1.98;;;8.90;47.10;;;;;;5059800;28;20146;-64
2021/04/27 05:48:03;;;;;;;5.10;2.03;;;9.60;46.80;;;;;;5021814;28;20131;-64
2021/04/27 05:50:28;;;;;;;9.27;2.25;;;10.50;45.90;;;;;;5050968;28;20067;-64
2021/04/27 05:52:56;;;;;;;4.85;2.35;;;11.30;44.50;;;;;;5038506;28;20074;-64
2021/04/27 05:55:24;;;;;;;8.48;2.20;;;11.60;43.20;;;;;;5038040;28;20047;-64
2021/04/27 05:57:51;;;;;;;12.68;2.40;;;11.90;42.50;;;;;;5046673;28;20067;-64
2021/04/27 06:00:19;;;;;;;5.32;2.08;;;12.10;41.70;;;;;;5052007;28;20513;-64
2021/04/27 06:02:47;;;;;;;4.50;2.17;;;12.30;41.10;;;;;;5023956;28;20059;-64
2021/04/27 06:05:13;;;;;;;5.90;2.15;;;12.60;40.70;;;;;;5031146;28;20461;-64
2021/04/27 06:07:39;;;;;;;4.43;2.10;;;12.70;39.90;;;;;;5045211;28;20502;-64
2021/04/27 06:10:07;;;;;;;3.03;1.90;;;12.70;40.20;;;;;;5050499;28;20118;-64
2021/04/27 06:12:33;;;;;;;5.93;2.30;;;12.80;39.20;;;;;;5056969;28;20615;-64
2021/04/27 06:15:01;;;;;;;6.20;2.17;;;12.80;39.10;;;;;;5045582;28;20044;-64
2021/04/27 06:17:27;;;;;;;4.28;1.92;;;12.70;39.00;;;;;;5049879;28;20039;-65
2021/04/27 06:19:55;;;;;;;7.00;1.90;;;12.40;38.80;;;;;;5048827;28;20040;-64
2021/04/27 06:22:23;;;;;;;4.13;1.98;;;12.20;39.00;;;;;;5055017;28;20048;-64
2021/04/27 06:24:48;;;;;;;3.63;2.00;;;11.90;39.20;;;;;;5047248;28;20050;-64
2021/04/27 06:27:16;;;;;;;10.80;2.20;;;11.60;39.40;;;;;;5028058;28;20437;-64
2021/04/27 06:29:42;;;;;;;4.85;2.05;;;11.50;39.90;;;;;;5029632;28;20140;-64
2021/04/27 06:32:07;;;;;;;6.90;1.83;;;11.40;40.40;;;;;;5030099;28;20227;-64
2021/04/27 06:34:35;;;;;;;6.43;2.00;;;11.40;40.40;;;;;;5043906;28;20123;-64
2021/04/27 06:37:03;;;;;;;3.95;2.08;;;11.40;40.00;;;;;;5057948;28;20416;-64
2021/04/27 06:39:28;;;;;;;10.07;2.05;;;11.30;39.90;;;;;;5050769;28;20545;-64
2021/04/27 06:41:56;;;;;;;6.20;2.08;;;11.20;40.10;;;;;;5052923;28;20040;-64
2021/04/27 06:44:22;;;;;;;4.93;1.88;;;11.10;40.50;;;;;;5060995;28;20468;-64
2021/04/27 06:46:49;;;;;;;3.17;2.03;;;11.30;40.90;;;;;;5051686;28;20037;-64
2021/04/27 06:49:19;;;;;;;5.68;1.88;;;11.60;40.80;;;;;;4948584;28;4623656;-63
2021/04/27 06:51:45;;;;;;;5.93;2.10;;;11.80;40.40;;;;;;5063224;28;23767;-64
2021/04/27 06:54:13;;;;;;;4.22;1.75;;;11.90;40.30;;;;;;5053884;28;20037;-64
2021/04/27 06:56:43;;;;;;;10.80;2.25;;;11.90;39.80;;;;;;5046101;28;20098;-64
2021/04/27 06:59:12;;;;;;;4.32;1.83;;;11.80;39.60;;;;;;5048779;28;20101;-64
2021/04/27 07:01:42;;;;;;;3.13;1.70;;;11.80;39.80;;;;;;5058033;28;20516;-65
2021/04/27 07:04:08;;;;;;;2.97;1.98;;;11.80;39.80;;;;;;5060080;28;20075;-64
2021/04/27 07:06:33;;;;;;;2.25;1.90;;;11.90;40.10;;;;;;5037713;28;20040;-64
2021/04/27 07:08:59;;;;;;;5.05;2.45;;;12.40;40.30;;;;;;5051132;28;20155;-65
2021/04/27 07:11:28;;;;;;;4.53;1.60;;;13.20;39.40;;;;;;5042719;28;20179;-64
2021/04/27 07:13:57;;;;;;;2.25;1.70;;;14.30;38.40;;;;;;5053167;28;20079;-64
2021/04/27 07:16:22;;;;;;;3.53;1.98;;;15.80;36.80;;;;;;5041387;28;20317;-65
2021/04/27 07:18:48;;;;;;;6.40;1.95;;;;;;;;;;5062519;28;20047;-65
2021/04/27 07:21:16;;;;;;;3.47;1.73;;;;;;;;;;5051649;28;20502;-64
2021/04/27 07:23:41;;;;;;;7.22;2.13;;;17.00;34.90;;;;;;5051665;28;20252;-66
2021/04/27 07:26:08;;;;;;;4.00;2.15;;;21.60;28.80;;;;;;5049641;28;20031;-65
2021/04/27 07:28:34;;;;;;;3.25;2.00;;;;;;;;;;5049235;28;20032;-65
2021/04/27 07:30:59;;;;;;;6.18;1.60;;;23.00;26.90;;;;;;5054155;28;20047;-65
2021/04/27 07:33:25;;;;;;;3.63;1.63;;;25.20;24.30;;;;;;5047993;28;20307;-65
2021/04/27 07:35:53;;;;;;;4.82;1.92;;;25.90;23.40;;;;;;5037984;28;20505;-65
2021/04/27 07:38:18;;;;;;;2.08;1.58;;;26.60;22.40;;;;;;5042644;28;20280;-65
2021/04/27 07:40:47;;;;;;;8.07;1.95;;;;;;;;;;5051502;28;20039;-65
2021/04/27 07:43:13;;;;;;;6.20;1.75;;;;;;;;;;5059465;28;20096;-65
2021/04/27 07:45:40;;;;;;;7.30;1.90;;;;;;;;;;5037963;28;20307;-65
2021/04/27 07:48:08;;;;;;;2.25;1.52;;;;;;;;;;5051959;28;20036;-65
2021/04/27 07:50:34;;;;;;;3.58;1.70;;;;;;;;;;5059084;28;20376;-65
2021/04/27 07:53:00;;;;;;;4.82;2.20;;;;;;;;;;5034656;28;20043;-65
2021/04/27 07:55:26;;;;;;;2.30;1.23;;;;;;;;;;5048256;28;20118;-66
2021/04/27 07:57:52;;;;;;;4.35;2.05;;;;;;;;;;5056820;28;20044;-66
2021/04/27 08:00:21;;;;;;;3.63;1.48;;;27.30;21.70;;;;;;5026410;28;20494;-66
2021/04/27 08:02:49;;;;;;;3.75;1.73;;;31.30;17.30;;;;;;5058566;28;20037;-65
2021/04/27 08:05:15;;;;;;;4.57;1.63;;;;;;;;;;5057312;28;20036;-65
2021/04/27 08:07:43;;;;;;;3.47;1.40;;;31.10;16.70;;;;;;5060537;28;20253;-65
2021/04/27 08:10:13;;;;;;;2.35;1.30;;;;;;;;;;5053370;28;20504;-65
2021/04/27 08:12:43;;;;;;;2.63;1.67;;;31.50;16.20;;;;;;5053005;28;20056;-65
2021/04/27 08:15:12;;;;;;;6.55;1.15;;;32.00;15.30;;;;;;5038113;28;20183;-65
2021/04/27 08:17:41;;;;;;;5.63;1.50;;;32.00;15.10;;;;;;5048833;28;20036;-65
2021/04/27 08:20:08;;;;;;;1.80;1.48;;;32.20;15.10;;;;;;5048651;28;20198;-65
2021/04/27 08:22:36;;;;;;;3.72;1.60;;;32.40;14.60;;;;;;5054365;28;20032;-65
2021/04/27 08:25:04;;;;;;;2.72;1.48;;;32.50;14.20;;;;;;5062633;28;20103;-65
2021/04/27 08:27:32;;;;;;;2.97;1.40;;;32.50;14.20;;;;;;5040182;28;20409;-65
2021/04/27 08:30:02;;;;;;;5.85;1.60;;;32.60;14.30;;;;;;5060455;28;20047;-65
2021/04/27 08:32:28;;;;;;;3.85;1.90;;;32.70;14.20;;;;;;5033688;28;20089;-65
2021/04/27 08:34:53;;;;;;;2.22;1.70;;;33.00;14.00;;;;;;5056469;28;20564;-65
2021/04/27 08:37:19;;;;;;;6.22;1.60;;;33.20;13.60;;;;;;5066327;28;20424;-65
2021/04/27 08:39:49;;;;;;;1.92;1.45;;;33.20;13.70;;;;;;5065493;28;20045;-65
2021/04/27 08:42:19;;;;;;;6.78;1.40;;;33.20;13.80;;;;;;5063286;28;20147;-65
2021/04/27 08:44:45;;;;;;;3.92;1.67;;;33.50;14.10;;;;;;5059885;28;20488;-65
2021/04/27 08:47:11;;;;;;;4.55;1.60;;;33.60;13.30;;;;;;5064348;28;20603;-64
2021/04/27 08:49:38;;;;;;;4.25;1.75;;;33.40;12.90;;;;;;5065378;28;20553;-64
2021/04/27 08:52:06;;;;;;;3.88;1.48;;;33.30;13.00;;;;;;5063169;28;20518;-65
2021/04/27 08:54:35;;;;;;;2.80;1.80;;;33.30;12.90;;;;;;5043841;28;20094;-65
2021/04/27 08:57:01;;;;;;;5.38;1.58;;;33.40;13.20;;;;;;5048584;28;20028;-66
2021/04/27 08:59:29;;;;;;;3.95;1.80;;;33.30;13.00;;;;;;5063994;28;20063;-65
2021/04/27 09:01:57;;;;;;;7.97;1.85;;;33.30;12.70;;;;;;5062625;28;20521;-65
2021/04/27 09:04:55;;;;;;;1.50;1.40;;;33.20;13.40;;;;;;5051385;28;20117;-65
2021/04/27 09:07:25;;;;;;;2.53;1.60;;;;;;;;;;5006783;28;20456;-65
2021/04/27 09:09:55;;;;;;;2.25;1.63;;;;;;;;;;5049181;28;20451;-65
2021/04/27 09:12:26;;;;;;;2.67;1.65;;;;;;;;;;5054384;28;20747;-65
2021/04/27 09:14:55;;;;;;;2.33;1.80;;;32.90;13.70;;;;;;5060941;28;20100;-65
2021/04/27 09:17:26;;;;;;;3.35;1.60;;;33.70;12.60;;;;;;5054394;28;20480;-65
2021/04/27 09:19:55;;;;;;;2.22;1.55;;;33.90;12.30;;;;;;5063805;28;20039;-65
2021/04/27 09:22:33;;;;;;;3.15;1.70;;;34.00;12.50;;;;;;5064446;28;20040;-65
2021/04/27 09:25:03;;;;;;;6.40;1.80;;;34.00;12.90;;;;;;5054418;28;20036;-65
2021/04/27 09:27:30;;;;;;;5.68;1.77;;;;;;;;;;5056724;28;20102;-65
2021/04/27 09:29:58;;;;;;;3.13;1.50;;;;;;;;;;5060050;28;20032;-65
2021/04/27 09:32:34;;;;;;;5.10;1.90;;;;;;;;;;5056456;28;20036;-65
2021/04/27 09:35:21;;;;;;;3.17;1.58;;;34.20;12.40;;;;;;5049857;28;20038;-64
2021/04/27 09:38:26;;;;;;;4.15;1.50;;;34.60;11.80;;;;;;5047138;28;20032;-64
2021/04/27 09:40:54;;;;;;;5.10;1.60;;;;;;;;;;5024563;28;20537;-65
2021/04/27 09:43:48;;;;;;;4.72;1.55;;;;;;;;;;5031650;28;20550;-65
2021/04/27 09:46:16;;;;;;;5.45;1.60;;;;;;;;;;5034545;28;20051;-65
2021/04/27 09:48:42;;;;;;;5.60;1.60;;;;;;;;;;5031286;28;20037;-65
2021/04/27 09:51:13;;;;;;;6.85;1.55;;;34.40;12.10;;;;;;5032837;28;20032;-65
2021/04/27 09:53:52;;;;;;;5.90;2.13;;;34.40;12.10;;;;;;5038845;28;20499;-65
2021/04/27 09:56:41;;;;;;;4.30;1.58;;;34.40;12.50;;;;;;5039270;28;20032;-65
2021/04/27 09:59:12;;;;;;;3.60;1.38;;;34.60;12.80;;;;;;5040770;28;20060;-65
2021/04/27 10:01:42;;;;;;;3.90;1.65;;;;;;;;;;5039581;28;20032;-64
2021/04/27 10:04:08;;;;;;;4.13;1.58;;;;;;;;;;5035774;28;20572;-65
2021/04/27 10:06:38;;;;;;;5.10;1.42;;;;;;;;;;5042288;28;21084;-65
2021/04/27 10:09:07;;;;;;;3.78;1.40;;;34.70;11.70;;;;;;5044918;28;20114;-65
2021/04/27 10:11:35;;;;;;;5.15;1.75;;;34.60;11.60;;;;;;5038976;28;24017;-65
2021/04/27 10:14:03;;;;;;;2.85;1.38;;;34.40;11.50;;;;;;5030579;28;20185;-65
2021/04/27 10:16:29;;;;;;;2.78;1.33;;;34.10;11.70;;;;;;5022621;28;20046;-65
2021/04/27 10:18:57;;;;;;;3.80;1.65;;;;;;;;;;5045348;28;20036;-65
2021/04/27 10:21:26;;;;;;;5.18;1.50;;;;;;;;;;5049588;28;20039;-65
2021/04/27 10:24:03;;;;;;;2.20;1.50;;;;;;;;;;5020311;28;20564;-65
2021/04/27 10:26:31;;;;;;;5.72;1.85;;;33.70;11.40;;;;;;5029491;28;20037;-65
2021/04/27 10:29:22;;;;;;;3.97;1.20;;;33.20;12.10;;;;;;5048453;28;20098;-65
2021/04/27 10:32:08;;;;;;;2.47;1.20;;;;;;;;;;5040191;28;20082;-65
2021/04/27 10:34:36;;;;;;;3.25;0.90;;;33.10;12.30;;;;;;5029274;28;20033;-64
2021/04/27 10:37:05;;;;;;;3.22;1.38;;;33.30;12.10;;;;;;5041956;28;20525;-64
2021/04/27 10:39:43;;;;;;;1.95;1.27;;;33.30;12.50;;;;;;5034901;28;20032;-65
2021/04/27 10:42:24;;;;;;;5.45;1.70;;;;;;;;;;5038964;28;20040;-64
2021/04/27 10:45:00;;;;;;;6.43;1.40;;;33.10;13.30;;;;;;5032467;28;20036;-64
2021/04/27 10:47:26;;;;;;;3.35;1.35;;;32.70;12.50;;;;;;5030836;28;20040;-65
2021/04/27 10:49:58;;;;;;;5.63;1.80;;;32.50;12.90;;;;;;5045093;28;20040;-65
2021/04/27 10:52:31;;;;;;;2.20;1.63;;;32.10;12.00;;;;;;5037268;28;20052;-65
2021/04/27 10:55:20;;;;;;;2.38;1.70;;;;;;;;;;5036578;28;20132;-65
2021/04/27 10:57:47;;;;;;;2.63;1.35;;;31.80;12.10;;;;;;5022412;28;20040;-65
2021/04/27 11:00:32;;;;;;;4.10;1.45;;;30.90;12.80;;;;;;5022155;28;20036;-64
2021/04/27 11:03:20;;;;;;;3.10;1.27;;;30.60;13.30;;;;;;5035757;28;20936;-64
2021/04/27 11:05:52;;;;;;;3.22;1.20;;;30.50;13.90;;;;;;5067712;28;20042;-64
2021/04/27 11:08:23;;;;;;;3.13;1.30;;;30.10;14.00;;;;;;5064397;28;20046;-64
2021/04/27 11:10:50;;;;;;;2.50;1.52;;;29.60;13.60;;;;;;5065522;28;20040;-64
2021/04/27 11:13:18;;;;;;;3.60;1.77;;;29.00;13.90;;;;;;5065464;28;20524;-64
2021/04/27 11:15:48;;;;;;;5.78;1.83;;;28.50;13.80;;;;;;5068803;28;20040;-64
2021/04/27 11:18:20;;;;;;;1.90;1.50;;;28.00;14.10;;;;;;5066938;28;20047;-64
2021/04/27 11:20:57;;;;;;;6.07;1.50;;;27.40;14.40;;;;;;5040895;28;20051;-64
2021/04/27 11:23:44;;;;;;;4.72;1.92;;;26.90;14.60;;;;;;5054305;28;20040;-64
2021/04/27 11:26:31;;;;;;;4.00;1.98;;;26.30;15.30;;;;;;5035782;28;20097;-64
2021/04/27 11:28:58;;;;;;;2.40;1.35;;;25.80;15.70;;;;;;5060642;28;20031;-64
2021/04/27 11:31:27;;;;;;;4.05;1.67;;;25.40;16.10;;;;;;5058033;28;20663;-64
2021/04/27 11:33:59;;;;;;;2.40;1.60;;;25.00;16.10;;;;;;5065855;28;20058;-64
2021/04/27 11:36:58;;;;;;;4.28;1.63;;;24.50;16.50;;;;;;5046586;28;20162;-63
2021/04/27 11:39:28;;;;;;;1.63;1.40;;;24.00;16.70;;;;;;5041163;28;20149;-64
2021/04/27 11:42:01;;;;;;;3.90;1.90;;;23.60;17.60;;;;;;5059909;28;20039;-64
2021/04/27 11:44:38;;;;;;;3.40;1.90;;;23.50;17.90;;;;;;5062359;28;20037;-64
2021/04/27 11:47:08;;;;;;;2.13;1.55;;;23.50;17.60;;;;;;5041752;28;20102;-64
2021/04/27 11:50:04;;;;;;;2.55;1.75;;;23.40;17.80;;;;;;5058763;28;20028;-64
2021/04/27 11:53:01;;;;;;;3.05;1.50;;;23.30;18.00;;;;;;5046781;28;20036;-64
2021/04/27 11:55:34;;;;;;;2.35;1.67;;;23.20;17.60;;;;;;5040418;28;20641;-64
2021/04/27 11:58:12;;;;;;;2.85;2.17;;;23.10;18.00;;;;;;5061023;28;20028;-64
2021/04/27 12:00:48;;;;;;;4.18;1.92;;;23.00;18.20;;;;;;5053592;28;20047;-64
2021/04/27 12:03:19;;;;;;;3.22;1.75;;;22.90;18.60;;;;;;5054902;28;20040;-64
2021/04/27 12:05:46;;;;;;;3.83;1.92;;;22.80;18.30;;;;;;5054026;28;20063;-64
2021/04/27 12:08:28;;;;;;;3.95;1.88;;;22.80;18.10;;;;;;5060272;28;20032;-64
2021/04/27 12:11:11;;;;;;;3.88;1.90;;;22.70;18.80;;;;;;5051755;28;20050;-64
2021/04/27 12:13:40;;;;;;;2.65;1.90;;;22.80;18.90;;;;;;5034144;28;20040;-64
2021/04/27 12:16:10;;;;;;;5.30;1.75;;;22.80;18.60;;;;;;5063450;28;20494;-64
2021/04/27 12:18:56;;;;;;;2.40;1.67;;;22.90;19.10;;;;;;5059795;28;20117;-64
2021/04/27 12:21:36;;;;;;;5.90;2.00;;;22.90;19.50;;;;;;5054612;28;20044;-64
2021/04/27 12:24:14;;;;;;;4.22;2.00;;;22.80;18.80;;;;;;5042561;28;21675;-64
2021/04/27 12:26:48;;;;;;;3.20;1.95;;;22.70;19.10;;;;;;5056778;28;20062;-64
2021/04/27 12:29:17;;;;;;;4.43;2.17;;;22.50;18.90;;;;;;5055007;28;20039;-64
2021/04/27 12:31:43;;;;;;;3.03;1.90;;;22.40;18.60;;;;;;5050594;28;20655;-64
2021/04/27 12:34:14;;;;;;;3.25;1.98;;;22.20;18.90;;;;;;5048487;28;20044;-64
2021/04/27 12:36:43;;;;;;;3.63;1.90;;;22.20;19.00;;;;;;5052456;28;20140;-64
2021/04/27 12:39:28;;;;;;;3.42;1.85;;;22.20;19.20;;;;;;5057622;28;20071;-64
2021/04/27 12:41:59;;;;;;;6.43;2.05;;;22.20;19.20;;;;;;5050490;28;20040;-64
2021/04/27 12:44:29;;;;;;;3.85;1.95;;;22.20;19.10;;;;;;5044773;28;20036;-64
2021/04/27 12:46:57;;;;;;;9.07;2.45;;;22.20;19.70;;;;;;5054971;28;20025;-64
2021/04/27 12:49:33;;;;;;;2.97;1.77;;;22.30;20.20;;;;;;5059996;28;20071;-64
2021/04/27 12:52:07;;;;;;;2.63;2.08;;;22.30;19.90;;;;;;5048241;28;20047;-64
2021/04/27 12:54:37;;;;;;;8.07;2.30;;;22.40;19.70;;;;;;5054368;28;20134;-63
2021/04/27 12:57:13;;;;;;;5.47;2.28;;;22.40;20.00;;;;;;5027210;28;20524;-63
2021/04/27 12:59:40;;;;;;;4.75;2.17;;;22.50;19.40;;;;;;5058471;28;20595;-64
2021/04/27 13:02:11;;;;;;;5.45;2.30;;;22.50;19.50;;;;;;5046941;28;20054;-64
2021/04/27 13:04:46;;;;;;;2.05;1.73;;;22.50;19.80;;;;;;5053320;28;20071;-65
2021/04/27 13:07:32;;;;;;;3.25;1.90;;;22.60;19.40;;;;;;5047860;28;20764;-64
2021/04/27 13:10:07;;;;;;;4.88;2.20;;;22.50;19.00;;;;;;5057314;28;20024;-64
2021/04/27 13:12:32;;;;;;;3.90;1.98;;;22.50;19.10;;;;;;5049811;28;20039;-64
2021/04/27 13:15:00;;;;;;;3.95;2.03;;;22.50;19.10;;;;;;5043917;28;20629;-64